createdAt,value
2019-05-18T00:01:36.001Z,3.83
2019-05-18T00:04:05.066Z,2.70
2019-05-18T00:06:34.090Z,2.53
2019-05-18T00:09:03.410Z,2.27
2019-05-18T00:11:33.037Z,2.50
2019-05-18T00:14:02.362Z,3.07
2019-05-18T00:16:31.678Z,2.50
2019-05-18T00:19:00.989Z,2.60
2019-05-18T00:21:30.423Z,2.50
2019-05-18T00:23:59.276Z,3.00
2019-05-18T00:26:28.168Z,2.47
2019-05-18T00:28:57.088Z,4.30
2019-05-18T00:31:26.045Z,2.63
2019-05-18T00:33:55.024Z,3.37
2019-05-18T00:36:23.914Z,6.30
2019-05-18T00:38:53.006Z,2.77
2019-05-18T00:41:22.123Z,4.97
2019-05-18T00:43:51.387Z,3.53
2019-05-18T00:46:20.477Z,3.00
2019-05-18T00:48:49.486Z,3.37
2019-05-18T00:51:18.754Z,3.80
2019-05-18T00:53:47.642Z,2.93
2019-05-18T00:56:17.081Z,4.80
2019-05-18T00:58:46.301Z,2.80
2019-05-18T01:01:15.586Z,3.00
2019-05-18T01:03:44.703Z,2.83
2019-05-18T01:06:13.758Z,3.17
2019-05-18T01:08:43.068Z,2.57
2019-05-18T01:11:12.045Z,3.80
2019-05-18T01:13:41.074Z,2.80
2019-05-18T01:16:11.224Z,2.80
2019-05-18T01:18:40.217Z,2.97
2019-05-18T01:21:09.273Z,2.80
2019-05-18T01:23:38.903Z,6.90
2019-05-18T01:26:08.175Z,2.73
2019-05-18T01:28:37.526Z,2.93
2019-05-18T01:31:06.550Z,3.63
2019-05-18T01:33:35.656Z,4.07
2019-05-18T01:36:04.670Z,3.50
2019-05-18T01:38:34.068Z,2.63
2019-05-18T01:41:03.031Z,3.60
2019-05-18T01:43:32.219Z,3.30
2019-05-18T01:46:01.252Z,2.93
2019-05-18T01:48:30.381Z,3.60
2019-05-18T01:50:59.446Z,3.80
2019-05-18T01:53:28.827Z,3.53
2019-05-18T01:55:58.276Z,3.10
2019-05-18T01:58:27.220Z,3.10
2019-05-18T02:00:56.188Z,3.10
2019-05-18T02:03:26.064Z,3.10
2019-05-18T02:05:55.110Z,3.07
2019-05-18T02:08:24.350Z,2.73
2019-05-18T02:10:53.290Z,2.97
2019-05-18T02:13:22.249Z,3.67
2019-05-18T02:15:51.362Z,3.47
2019-05-18T02:18:28.738Z,3.03
2019-05-18T02:20:51.323Z,2.90
2019-05-18T02:23:20.552Z,2.60
2019-05-18T02:25:49.581Z,3.40
2019-05-18T02:28:18.922Z,2.97
2019-05-18T02:30:47.964Z,2.50
2019-05-18T02:33:16.903Z,2.93
2019-05-18T02:35:45.737Z,2.50
2019-05-18T02:38:18.294Z,5.00
2019-05-18T02:40:47.966Z,3.67
2019-05-18T02:43:17.596Z,3.10
2019-05-18T02:45:46.566Z,4.20
2019-05-18T02:48:15.509Z,2.73
2019-05-18T02:50:44.779Z,3.30
2019-05-18T02:53:13.799Z,2.93
2019-05-18T02:55:43.158Z,2.70
2019-05-18T02:58:12.158Z,2.57
2019-05-18T03:00:41.152Z,3.00
2019-05-18T03:03:10.174Z,3.67
2019-05-18T03:05:39.091Z,4.00
2019-05-18T03:08:08.203Z,3.30
2019-05-18T03:10:37.487Z,3.30
2019-05-18T03:13:06.787Z,3.63
2019-05-18T03:15:35.939Z,5.60
2019-05-18T03:18:05.464Z,4.07
2019-05-18T03:20:34.456Z,3.37
2019-05-18T03:23:03.789Z,3.97
2019-05-18T03:25:33.474Z,3.57
2019-05-18T03:28:02.490Z,4.30
2019-05-18T03:30:31.496Z,3.30
2019-05-18T03:33:00.823Z,3.57
2019-05-18T03:35:29.872Z,4.90
2019-05-18T03:37:58.965Z,3.40
2019-05-18T03:40:28.257Z,4.60
2019-05-18T03:42:57.417Z,3.83
2019-05-18T03:45:26.438Z,3.70
2019-05-18T03:47:55.422Z,4.40
2019-05-18T03:50:24.773Z,3.40
2019-05-18T03:52:54.143Z,3.70
2019-05-18T03:55:23.496Z,3.87
2019-05-18T03:57:52.605Z,3.87
2019-05-18T04:00:21.627Z,5.67
2019-05-18T04:02:50.488Z,3.87
2019-05-18T04:05:19.830Z,3.97
2019-05-18T04:07:48.845Z,3.77
2019-05-18T04:10:26.892Z,3.63
2019-05-18T04:12:56.242Z,3.80
2019-05-18T04:15:25.196Z,3.77
2019-05-18T04:17:54.235Z,3.73
2019-05-18T04:20:23.276Z,6.97
2019-05-18T04:22:52.355Z,4.20
2019-05-18T04:25:21.612Z,4.03
2019-05-18T04:27:50.656Z,3.90
2019-05-18T04:30:19.688Z,3.73
2019-05-18T04:32:48.632Z,3.60
2019-05-18T04:35:17.928Z,3.97
2019-05-18T04:37:46.922Z,5.07
2019-05-18T04:40:16.092Z,5.70
2019-05-18T04:42:45.030Z,4.37
2019-05-18T04:45:14.021Z,4.00
2019-05-18T04:47:43.302Z,4.93
2019-05-18T04:50:12.655Z,4.43
2019-05-18T04:52:41.998Z,3.93
2019-05-18T04:55:11.605Z,4.97
2019-05-18T04:57:40.960Z,3.73
2019-05-18T05:00:10.531Z,4.10
2019-05-18T05:02:39.540Z,4.10
2019-05-18T05:05:08.888Z,4.23
2019-05-18T05:07:37.793Z,4.00
2019-05-18T05:10:08.968Z,5.20
2019-05-18T05:12:38.137Z,4.17
2019-05-18T05:15:08.205Z,3.63
2019-05-18T05:17:37.479Z,4.93
2019-05-18T05:20:18.691Z,3.87
2019-05-18T05:22:37.412Z,3.43
2019-05-18T05:25:06.579Z,3.83
2019-05-18T05:27:35.615Z,5.07
2019-05-18T05:30:05.323Z,4.13
2019-05-18T05:32:34.663Z,3.23
2019-05-18T05:35:03.820Z,3.60
2019-05-18T05:37:32.913Z,3.93
2019-05-18T05:40:01.830Z,3.50
2019-05-18T05:42:30.733Z,3.50
2019-05-18T05:44:59.998Z,3.97
2019-05-18T05:47:29.295Z,4.70
2019-05-18T05:49:58.286Z,3.43
2019-05-18T05:52:27.083Z,3.10
2019-05-18T05:54:55.990Z,3.80
2019-05-18T05:57:24.894Z,4.37
2019-05-18T05:59:53.912Z,3.97
2019-05-18T06:02:22.869Z,3.33
2019-05-18T06:04:51.811Z,4.33
2019-05-18T06:07:20.728Z,6.03
2019-05-18T06:09:49.719Z,4.30
2019-05-18T06:12:18.804Z,3.67
2019-05-18T06:14:47.818Z,4.20
2019-05-18T06:17:16.646Z,3.70
2019-05-18T06:19:45.637Z,4.33
2019-05-18T06:22:15.052Z,5.37
2019-05-18T06:24:44.351Z,4.03
2019-05-18T06:27:13.267Z,4.40
2019-05-18T06:29:42.306Z,4.63
2019-05-18T06:32:11.615Z,4.53
2019-05-18T06:34:40.698Z,3.60
2019-05-18T06:37:10.033Z,4.10
2019-05-18T06:39:39.051Z,3.43
2019-05-18T06:42:10.759Z,4.50
2019-05-18T06:44:38.759Z,3.67
2019-05-18T06:47:07.888Z,3.43
2019-05-18T06:49:36.750Z,3.40
2019-05-18T06:52:06.326Z,3.77
2019-05-18T06:54:35.349Z,3.50
2019-05-18T06:57:04.369Z,3.53
2019-05-18T06:59:33.414Z,3.60
2019-05-18T07:02:02.448Z,3.33
2019-05-18T07:04:31.306Z,3.10
2019-05-18T07:07:00.322Z,3.70
2019-05-18T07:09:29.708Z,3.53
2019-05-18T07:11:58.727Z,3.00
2019-05-18T07:14:27.663Z,4.10
2019-05-18T07:16:56.626Z,3.07
2019-05-18T07:19:25.564Z,4.00
2019-05-18T07:21:54.831Z,4.57
2019-05-18T07:24:23.762Z,4.37
2019-05-18T07:26:52.789Z,3.60
2019-05-18T07:29:21.814Z,3.40
2019-05-18T07:31:50.872Z,3.13
2019-05-18T07:34:20.155Z,4.30
2019-05-18T07:36:49.398Z,3.90
2019-05-18T07:39:18.609Z,3.40
2019-05-18T07:41:47.588Z,3.93
2019-05-18T07:44:16.595Z,3.43
2019-05-18T07:46:46.248Z,3.60
2019-05-18T07:49:15.363Z,3.10
2019-05-18T07:51:44.558Z,3.23
2019-05-18T07:54:14.223Z,4.40
2019-05-18T07:56:43.230Z,2.90
2019-05-18T07:59:12.086Z,3.33
2019-05-18T08:01:41.136Z,3.67
2019-05-18T08:04:10.080Z,3.43
2019-05-18T08:06:39.386Z,3.23
2019-05-18T08:09:08.425Z,2.93
2019-05-18T08:11:37.813Z,3.67
2019-05-18T08:14:07.623Z,2.90
2019-05-18T08:16:36.931Z,4.47
2019-05-18T08:19:05.876Z,3.43
2019-05-18T08:21:34.910Z,3.53
2019-05-18T08:24:03.920Z,3.53
2019-05-18T08:26:33.023Z,3.37
2019-05-18T08:29:02.263Z,3.60
2019-05-18T08:31:31.574Z,2.87
2019-05-18T08:34:00.539Z,2.93
2019-05-18T08:36:29.577Z,3.50
2019-05-18T08:38:58.570Z,3.50
2019-05-18T08:41:28.005Z,3.73
2019-05-18T08:43:57.092Z,3.00
2019-05-18T08:46:25.951Z,3.20
2019-05-18T08:48:54.852Z,3.30
2019-05-18T08:51:23.848Z,4.00
2019-05-18T08:53:52.862Z,3.70
2019-05-18T08:56:22.152Z,5.10
2019-05-18T08:58:51.328Z,4.60
2019-05-18T09:01:20.375Z,3.40
2019-05-18T09:03:49.260Z,3.80
2019-05-18T09:06:18.279Z,4.83
2019-05-18T09:08:47.662Z,4.30
2019-05-18T09:11:16.970Z,4.40
2019-05-18T09:13:45.880Z,4.10
2019-05-18T09:16:14.832Z,4.27
2019-05-18T09:18:43.867Z,3.77
2019-05-18T09:21:12.850Z,4.00
2019-05-18T09:23:41.878Z,4.50
2019-05-18T09:26:10.806Z,4.47
2019-05-18T09:28:39.840Z,3.57
2019-05-18T09:31:08.965Z,3.47
2019-05-18T09:33:37.961Z,4.20
2019-05-18T09:36:06.974Z,4.40
2019-05-18T09:38:35.872Z,4.23
2019-05-18T09:41:04.965Z,4.50
2019-05-18T09:43:34.000Z,4.03
2019-05-18T09:46:02.846Z,5.03
2019-05-18T09:48:31.689Z,3.97
2019-05-18T09:51:00.794Z,3.93
2019-05-18T09:53:30.228Z,3.37
2019-05-18T09:55:59.627Z,3.20
2019-05-18T09:58:28.706Z,4.53
2019-05-18T10:00:57.769Z,3.10
2019-05-18T10:03:27.051Z,4.13
2019-05-18T10:05:56.096Z,2.57
2019-05-18T10:08:25.040Z,3.87
2019-05-18T10:10:53.939Z,2.80
2019-05-18T10:13:22.915Z,3.00
2019-05-18T10:15:52.396Z,3.37
2019-05-18T10:18:21.997Z,3.00
2019-05-18T10:20:51.304Z,4.50
2019-05-18T10:23:20.579Z,3.20
2019-05-18T10:25:49.502Z,2.60
2019-05-18T10:28:18.380Z,3.30
2019-05-18T10:30:47.448Z,2.43
2019-05-18T10:33:16.674Z,2.97
2019-05-18T10:35:45.778Z,3.20
2019-05-18T10:38:14.775Z,2.60
2019-05-18T10:40:44.008Z,2.13
2019-05-18T10:43:13.772Z,3.77
2019-05-18T10:45:45.085Z,3.03
2019-05-18T10:48:13.427Z,3.17
2019-05-18T10:50:43.410Z,2.33
2019-05-18T10:53:27.521Z,2.37
2019-05-18T10:55:43.237Z,1.90
2019-05-18T10:58:12.868Z,2.60
2019-05-18T11:00:41.956Z,2.43
2019-05-18T11:03:10.984Z,2.17
2019-05-18T11:05:39.924Z,1.93
2019-05-18T11:08:09.137Z,1.97
2019-05-18T11:10:38.169Z,2.10
2019-05-18T11:13:07.192Z,1.80
2019-05-18T11:15:36.515Z,1.63
2019-05-18T11:18:05.592Z,3.20
2019-05-18T11:20:35.224Z,2.20
2019-05-18T11:23:04.265Z,2.23
2019-05-18T11:25:33.330Z,2.07
2019-05-18T11:28:02.605Z,2.00
2019-05-18T11:30:32.136Z,3.03
2019-05-18T11:33:01.226Z,1.67
2019-05-18T11:35:30.270Z,1.93
2019-05-18T11:37:59.236Z,2.63
2019-05-18T11:40:28.343Z,2.40
2019-05-18T11:42:57.435Z,2.03
2019-05-18T11:45:27.355Z,1.73
2019-05-18T11:47:56.607Z,2.80
2019-05-18T11:50:25.746Z,2.20
2019-05-18T11:52:54.646Z,2.23
2019-05-18T11:55:23.953Z,2.03
2019-05-18T11:57:52.913Z,1.83
2019-05-18T12:00:22.401Z,1.97
2019-05-18T12:02:51.391Z,1.77
2019-05-18T12:05:20.449Z,2.83
2019-05-18T12:07:49.571Z,2.33
2019-05-18T12:10:19.463Z,2.23
2019-05-18T12:12:48.592Z,2.23
2019-05-18T12:15:19.227Z,2.10
2019-05-18T12:17:48.258Z,2.47
2019-05-18T12:20:17.599Z,2.23
2019-05-18T12:22:46.590Z,1.60
2019-05-18T12:25:15.804Z,2.20
2019-05-18T12:27:44.903Z,2.43
2019-05-18T12:30:14.489Z,1.70
2019-05-18T12:32:43.615Z,1.73
2019-05-18T12:35:13.084Z,3.40
2019-05-18T12:37:41.996Z,2.27
2019-05-18T12:40:12.854Z,2.80
2019-05-18T12:42:42.091Z,2.23
2019-05-18T12:45:11.404Z,1.97
2019-05-18T12:47:40.509Z,5.03
2019-05-18T12:50:10.115Z,1.90
2019-05-18T12:52:39.511Z,1.23
2019-05-18T12:55:08.666Z,1.50
2019-05-18T12:57:38.012Z,1.30
2019-05-18T13:00:09.463Z,2.27
2019-05-18T13:02:38.468Z,4.47
2019-05-18T13:05:08.107Z,2.93
2019-05-18T13:07:37.520Z,1.50
2019-05-18T13:10:06.735Z,1.93
2019-05-18T13:12:35.833Z,1.10
2019-05-18T13:15:06.332Z,1.83
2019-05-18T13:17:35.211Z,1.13
2019-05-18T13:20:04.622Z,1.00
2019-05-18T13:22:33.669Z,1.30
2019-05-18T13:25:02.902Z,1.10
2019-05-18T13:27:39.497Z,1.10
2019-05-18T13:30:02.610Z,1.47
2019-05-18T13:32:31.678Z,2.03
2019-05-18T13:35:00.493Z,4.53
2019-05-18T13:37:29.435Z,1.40
2019-05-18T13:39:58.439Z,1.43
2019-05-18T13:42:27.459Z,1.20
2019-05-18T13:44:56.708Z,1.37
2019-05-18T13:47:25.615Z,3.83
2019-05-18T13:49:54.693Z,1.30
2019-05-18T13:52:23.643Z,1.13
2019-05-18T13:55:03.011Z,4.03
2019-05-18T13:57:23.246Z,1.37
2019-05-18T13:59:52.299Z,1.30
2019-05-18T14:02:21.284Z,1.30
2019-05-18T14:04:50.279Z,1.33
2019-05-18T14:07:19.303Z,1.40
2019-05-18T14:09:48.339Z,1.23
2019-05-18T14:12:17.462Z,1.47
2019-05-18T14:14:46.576Z,1.43
2019-05-18T14:17:15.402Z,1.77
2019-05-18T14:19:44.542Z,2.17
2019-05-18T14:22:13.530Z,1.17
2019-05-18T14:24:42.362Z,1.47
2019-05-18T14:27:11.547Z,1.40
2019-05-18T14:29:40.473Z,2.57
2019-05-18T14:32:11.031Z,1.87
2019-05-18T14:34:40.239Z,2.23
2019-05-18T14:37:09.165Z,1.93
2019-05-18T14:39:38.017Z,1.40
2019-05-18T14:42:07.123Z,1.63
2019-05-18T14:44:36.790Z,1.30
2019-05-18T14:47:05.774Z,1.40
2019-05-18T14:49:34.743Z,2.63
2019-05-18T14:52:04.107Z,0.97
2019-05-18T14:54:33.175Z,1.10
2019-05-18T14:57:05.247Z,1.33
2019-05-18T14:59:34.214Z,1.10
2019-05-18T15:02:03.113Z,2.67
2019-05-18T15:04:32.292Z,1.40
2019-05-18T15:07:01.759Z,2.10
2019-05-18T15:09:31.012Z,2.07
2019-05-18T15:12:00.345Z,2.20
2019-05-18T15:14:29.313Z,1.27
2019-05-18T15:16:59.004Z,1.50
2019-05-18T15:19:28.082Z,1.53
2019-05-18T15:21:57.070Z,1.40
2019-05-18T15:24:25.925Z,1.30
2019-05-18T15:26:54.772Z,1.70
2019-05-18T15:29:24.092Z,1.70
2019-05-18T15:31:53.156Z,2.30
2019-05-18T15:34:22.487Z,1.80
2019-05-18T15:36:51.350Z,1.97
2019-05-18T15:39:20.524Z,1.77
2019-05-18T15:41:49.815Z,1.30
2019-05-18T15:44:19.078Z,1.13
2019-05-18T15:46:48.018Z,1.37
2019-05-18T15:49:17.297Z,1.33
2019-05-18T15:51:46.619Z,1.80
2019-05-18T15:54:15.583Z,1.80
2019-05-18T15:56:44.699Z,2.17
2019-05-18T15:59:14.054Z,1.33
2019-05-18T16:01:43.409Z,1.70
2019-05-18T16:04:12.440Z,1.37
2019-05-18T16:06:41.345Z,1.50
2019-05-18T16:09:10.345Z,1.80
2019-05-18T16:11:39.294Z,1.60
2019-05-18T16:14:08.323Z,2.03
2019-05-18T16:16:37.779Z,1.20
2019-05-18T16:19:06.972Z,1.43
2019-05-18T16:21:35.935Z,1.77
2019-05-18T16:24:05.187Z,1.57
2019-05-18T16:26:34.447Z,1.70
2019-05-18T16:29:03.486Z,2.03
2019-05-18T16:31:32.472Z,1.50
2019-05-18T16:34:01.652Z,2.70
2019-05-18T16:36:30.547Z,2.83
2019-05-18T16:38:59.480Z,1.83
2019-05-18T16:41:28.524Z,1.97
2019-05-18T16:43:57.913Z,1.53
2019-05-18T16:46:26.834Z,3.30
2019-05-18T16:48:56.123Z,1.83
2019-05-18T16:51:25.343Z,1.60
2019-05-18T16:53:54.237Z,1.20
2019-05-18T16:56:34.515Z,1.30
2019-05-18T16:58:53.955Z,1.77
2019-05-18T17:01:22.964Z,1.60
2019-05-18T17:03:51.837Z,1.60
2019-05-18T17:06:21.276Z,1.77
2019-05-18T17:08:51.259Z,1.50
2019-05-18T17:11:20.246Z,1.30
2019-05-18T17:13:49.089Z,1.77
2019-05-18T17:16:18.214Z,2.17
2019-05-18T17:18:47.141Z,1.27
2019-05-18T17:21:16.078Z,1.40
2019-05-18T17:23:44.992Z,2.07
2019-05-18T17:26:14.047Z,1.70
2019-05-18T17:28:43.336Z,9.13
2019-05-18T17:31:13.074Z,6.10
2019-05-18T17:33:42.319Z,2.60
2019-05-18T17:36:11.979Z,1.67
2019-05-18T17:38:40.995Z,1.93
2019-05-18T17:41:10.006Z,1.40
2019-05-18T17:43:39.259Z,1.47
2019-05-18T17:46:08.308Z,2.90
2019-05-18T17:48:37.368Z,1.43
2019-05-18T17:51:06.750Z,1.30
2019-05-18T17:53:35.776Z,1.23
2019-05-18T17:56:04.787Z,4.07
2019-05-18T17:58:33.730Z,1.67
2019-05-18T18:01:02.972Z,1.90
2019-05-18T18:03:32.597Z,1.40
2019-05-18T18:06:01.626Z,0.87
2019-05-18T18:08:30.587Z,1.30
2019-05-18T18:10:59.533Z,1.13
2019-05-18T18:13:28.767Z,1.30
2019-05-18T18:15:57.588Z,2.30
2019-05-18T18:18:26.581Z,1.23
2019-05-18T18:20:55.597Z,1.67
2019-05-18T18:23:25.154Z,1.40
2019-05-18T18:25:54.265Z,1.93
2019-05-18T18:28:23.181Z,2.07
2019-05-18T18:30:52.432Z,2.00
2019-05-18T18:33:21.289Z,1.70
2019-05-18T18:35:50.276Z,2.87
2019-05-18T18:38:19.592Z,1.57
2019-05-18T18:40:48.866Z,1.53
2019-05-18T18:43:20.461Z,1.57
2019-05-18T18:45:48.908Z,1.27
2019-05-18T18:48:18.148Z,1.20
2019-05-18T18:50:47.274Z,1.50
2019-05-18T18:53:16.093Z,1.63
2019-05-18T18:55:45.063Z,2.53
2019-05-18T18:58:14.572Z,1.40
2019-05-18T19:00:43.844Z,1.57
2019-05-18T19:03:12.708Z,1.80
2019-05-18T19:05:41.661Z,2.00
2019-05-18T19:08:10.918Z,1.57
2019-05-18T19:10:39.961Z,1.23
2019-05-18T19:13:08.831Z,1.40
2019-05-18T19:15:37.918Z,2.07
2019-05-18T19:18:07.075Z,1.93
2019-05-18T19:20:36.071Z,1.70
2019-05-18T19:23:05.102Z,2.23
2019-05-18T19:25:34.096Z,2.57
2019-05-18T19:28:02.953Z,1.60
2019-05-18T19:30:32.151Z,1.40
2019-05-18T19:33:01.410Z,1.40
2019-05-18T19:35:30.857Z,1.67
2019-05-18T19:37:59.963Z,2.80
2019-05-18T19:40:29.219Z,2.83
2019-05-18T19:42:58.267Z,1.70
2019-05-18T19:45:27.438Z,2.00
2019-05-18T19:47:56.478Z,1.77
2019-05-18T19:50:25.403Z,1.67
2019-05-18T19:52:54.259Z,1.97
2019-05-18T19:55:23.510Z,1.37
2019-05-18T19:57:52.384Z,1.83
2019-05-18T20:00:21.831Z,1.70
2019-05-18T20:02:51.239Z,1.67
2019-05-18T20:05:20.638Z,1.67
2019-05-18T20:07:49.592Z,1.87
2019-05-18T20:10:18.582Z,1.80
2019-05-18T20:12:47.667Z,1.63
2019-05-18T20:15:18.090Z,1.80
2019-05-18T20:17:47.072Z,1.63
2019-05-18T20:20:17.050Z,1.60
2019-05-18T20:22:46.449Z,2.10
2019-05-18T20:25:15.678Z,2.20
2019-05-18T20:27:44.950Z,1.80
2019-05-18T20:30:14.169Z,2.20
2019-05-18T20:32:43.453Z,1.80
2019-05-18T20:35:12.656Z,2.03
2019-05-18T20:37:41.610Z,2.23
2019-05-18T20:40:10.977Z,1.80
2019-05-18T20:42:40.233Z,2.00
2019-05-18T20:45:10.060Z,2.20
2019-05-18T20:47:39.138Z,2.27
2019-05-18T20:50:08.688Z,1.47
2019-05-18T20:52:37.898Z,1.50
2019-05-18T20:55:07.724Z,1.40
2019-05-18T20:57:36.772Z,1.53
2019-05-18T21:00:06.478Z,1.07
2019-05-18T21:02:35.452Z,1.23
2019-05-18T21:05:04.827Z,0.90
2019-05-18T21:07:33.683Z,2.03
2019-05-18T21:10:02.883Z,1.20
2019-05-18T21:12:32.091Z,1.50
2019-05-18T21:15:01.235Z,1.27
2019-05-18T21:17:30.667Z,1.00
2019-05-18T21:20:00.123Z,1.10
2019-05-18T21:22:29.449Z,1.30
2019-05-18T21:24:58.306Z,1.10
2019-05-18T21:27:27.218Z,1.87
2019-05-18T21:29:56.191Z,1.97
2019-05-18T21:32:25.327Z,1.50
2019-05-18T21:34:54.275Z,1.30
2019-05-18T21:37:23.296Z,1.30
2019-05-18T21:39:52.302Z,1.60
2019-05-18T21:42:21.534Z,1.70
2019-05-18T21:44:50.495Z,1.20
2019-05-18T21:47:19.424Z,3.00
2019-05-18T21:49:48.506Z,1.30
2019-05-18T21:52:17.772Z,1.17
2019-05-18T21:54:46.670Z,1.50
2019-05-18T21:57:15.635Z,1.33
2019-05-18T21:59:44.559Z,1.30
2019-05-18T22:02:13.547Z,2.70
2019-05-18T22:04:42.888Z,1.40
2019-05-18T22:07:12.198Z,1.50
2019-05-18T22:09:41.212Z,2.20
2019-05-18T22:12:10.147Z,1.30
2019-05-18T22:14:39.152Z,2.23
2019-05-18T22:17:08.273Z,1.70
2019-05-18T22:19:37.129Z,1.80
2019-05-18T22:22:06.346Z,3.10
2019-05-18T22:24:35.520Z,1.63
2019-05-18T22:27:04.455Z,1.80
2019-05-18T22:29:33.501Z,1.77
2019-05-18T22:32:02.459Z,3.73
2019-05-18T22:34:31.270Z,1.67
2019-05-18T22:37:00.467Z,1.90
2019-05-18T22:39:29.646Z,1.70
2019-05-18T22:41:58.493Z,2.10
2019-05-18T22:44:27.646Z,2.33
2019-05-18T22:46:56.896Z,2.00
2019-05-18T22:49:26.053Z,1.60
2019-05-18T22:51:54.972Z,2.20
2019-05-18T22:54:24.238Z,1.80
2019-05-18T22:56:53.357Z,2.00
2019-05-18T22:59:23.120Z,2.20
2019-05-18T23:01:52.562Z,2.23
2019-05-18T23:04:21.606Z,2.47
2019-05-18T23:06:50.558Z,1.83
2019-05-18T23:09:19.551Z,1.73
2019-05-18T23:11:48.858Z,1.87
2019-05-18T23:14:17.985Z,2.40
2019-05-18T23:16:46.982Z,2.23
2019-05-18T23:19:15.944Z,2.70
2019-05-18T23:21:44.816Z,2.23
2019-05-18T23:24:13.829Z,1.97
2019-05-18T23:26:43.093Z,2.67
2019-05-18T23:29:12.079Z,2.13
2019-05-18T23:31:40.936Z,1.67
2019-05-18T23:34:09.909Z,1.90
2019-05-18T23:36:38.819Z,2.10
2019-05-18T23:39:07.806Z,2.30
2019-05-18T23:41:36.760Z,2.20
2019-05-18T23:44:05.746Z,2.30
2019-05-18T23:46:34.761Z,1.90
2019-05-18T23:49:10.953Z,2.20
2019-05-18T23:51:34.572Z,2.80
2019-05-18T23:54:03.897Z,2.57
2019-05-18T23:56:32.960Z,4.63
2019-05-18T23:59:01.862Z,2.03
